createdAt,value
2023-01-31T00:01:43.331Z,12.73
2023-01-31T00:04:12.777Z,10.20
2023-01-31T00:06:43.339Z,10.50
2023-01-31T00:09:12.475Z,8.80
2023-01-31T00:11:39.933Z,9.70
2023-01-31T00:14:11.763Z,9.10
2023-01-31T00:16:39.288Z,10.23
2023-01-31T00:19:06.985Z,12.47
2023-01-31T00:21:34.816Z,10.00
2023-01-31T00:24:02.740Z,15.17
2023-01-31T00:26:36.025Z,19.23
2023-01-31T00:29:05.404Z,18.27
2023-01-31T00:31:34.089Z,15.60
2023-01-31T00:34:01.418Z,8.97
2023-01-31T00:36:32.457Z,12.70
2023-01-31T00:39:02.529Z,14.07
2023-01-31T00:41:31.019Z,10.57
2023-01-31T00:43:59.017Z,13.13
2023-01-31T00:46:26.365Z,16.47
2023-01-31T00:48:54.259Z,27.30
2023-01-31T00:51:21.846Z,16.77
2023-01-31T00:53:50.657Z,13.27
2023-01-31T00:56:20.641Z,13.37
2023-01-31T00:58:47.913Z,12.17
2023-01-31T01:01:24.261Z,10.37
2023-01-31T01:03:51.479Z,10.17
2023-01-31T01:06:19.669Z,11.87
2023-01-31T01:08:46.892Z,13.53
2023-01-31T01:11:18.974Z,13.20
2023-01-31T01:13:46.670Z,12.10
2023-01-31T01:16:21.077Z,9.33
2023-01-31T01:18:49.522Z,10.87
2023-01-31T01:21:20.118Z,11.27
2023-01-31T01:23:47.513Z,10.43
2023-01-31T01:26:20.664Z,11.10
2023-01-31T01:28:48.741Z,11.27
2023-01-31T01:31:17.693Z,9.67
2023-01-31T01:33:46.141Z,11.33
2023-01-31T01:36:16.440Z,10.30
2023-01-31T01:38:46.035Z,12.57
2023-01-31T01:41:14.248Z,13.10
2023-01-31T01:43:55.457Z,12.07
2023-01-31T01:46:31.707Z,9.23
2023-01-31T01:49:01.128Z,7.97
2023-01-31T01:51:32.533Z,11.50
2023-01-31T01:54:05.206Z,12.73
2023-01-31T01:56:37.899Z,10.23
2023-01-31T01:59:07.923Z,10.03
2023-01-31T02:01:38.240Z,11.53
2023-01-31T02:04:10.349Z,15.70
2023-01-31T02:06:37.569Z,13.57
2023-01-31T02:09:09.622Z,12.40
2023-01-31T02:11:37.160Z,10.70
2023-01-31T02:14:08.687Z,8.03
2023-01-31T02:16:36.686Z,7.70
2023-01-31T02:19:08.303Z,11.77
2023-01-31T02:22:10.270Z,10.73
2023-01-31T02:24:56.276Z,9.30
2023-01-31T02:27:43.638Z,16.10
2023-01-31T02:30:26.508Z,14.13
2023-01-31T02:33:20.042Z,12.17
2023-01-31T02:36:37.986Z,16.63
2023-01-31T02:39:15.904Z,10.47
2023-01-31T02:42:05.262Z,9.90
2023-01-31T02:45:00.540Z,5.33
2023-01-31T02:47:45.203Z,5.43
2023-01-31T02:50:15.492Z,6.73
2023-01-31T02:53:01.500Z,8.10
2023-01-31T02:56:09.198Z,9.50
2023-01-31T02:58:38.381Z,11.83
2023-01-31T03:01:07.499Z,7.83
2023-01-31T03:03:38.481Z,11.43
2023-01-31T03:06:23.269Z,9.97
2023-01-31T03:09:00.115Z,7.00
2023-01-31T03:11:43.361Z,8.60
2023-01-31T03:14:25.176Z,4.63
2023-01-31T03:17:22.921Z,9.77
2023-01-31T03:19:59.104Z,14.77
2023-01-31T03:22:39.438Z,8.63
2023-01-31T03:25:10.103Z,11.10
2023-01-31T03:27:39.556Z,10.40
2023-01-31T03:30:17.499Z,11.43
2023-01-31T03:32:52.769Z,8.73
2023-01-31T03:35:24.592Z,7.63
2023-01-31T03:37:59.976Z,8.50
2023-01-31T03:40:34.608Z,12.07
2023-01-31T03:43:32.535Z,9.70
2023-01-31T03:46:04.877Z,8.73
2023-01-31T03:48:38.412Z,8.47
2023-01-31T03:51:10.034Z,10.40
2023-01-31T03:54:08.977Z,9.63
2023-01-31T03:56:44.309Z,9.20
2023-01-31T03:59:18.690Z,10.37
2023-01-31T04:01:49.100Z,9.97
2023-01-31T04:04:38.730Z,9.67
2023-01-31T04:07:06.994Z,6.20
2023-01-31T04:09:34.559Z,10.03
2023-01-31T04:12:02.841Z,10.53
2023-01-31T04:14:30.543Z,15.93
2023-01-31T04:16:58.468Z,10.80
2023-01-31T04:19:25.903Z,4.97
2023-01-31T04:21:53.162Z,13.50
2023-01-31T04:24:20.577Z,14.10
2023-01-31T04:26:48.237Z,5.97
2023-01-31T04:29:15.457Z,5.10
2023-01-31T04:31:42.707Z,9.67
2023-01-31T04:34:10.341Z,5.63
2023-01-31T04:36:37.464Z,10.93
2023-01-31T04:39:05.019Z,6.57
2023-01-31T04:41:32.160Z,6.90
2023-01-31T04:43:59.312Z,11.93
2023-01-31T04:46:26.563Z,15.37
2023-01-31T04:48:53.799Z,9.70
2023-01-31T04:51:21.247Z,10.47
2023-01-31T04:53:48.513Z,5.67
2023-01-31T04:56:15.679Z,9.13
2023-01-31T04:58:43.702Z,6.53
2023-01-31T05:01:11.726Z,7.73
2023-01-31T05:03:38.991Z,8.20
2023-01-31T05:06:06.936Z,16.83
2023-01-31T05:08:34.362Z,13.10
2023-01-31T05:11:04.487Z,7.27
2023-01-31T05:13:33.030Z,12.40
2023-01-31T05:16:00.261Z,10.63
2023-01-31T05:18:27.552Z,7.90
2023-01-31T05:20:54.927Z,12.50
2023-01-31T05:23:22.180Z,10.80
2023-01-31T05:25:51.081Z,13.10
2023-01-31T05:28:18.986Z,10.70
2023-01-31T05:30:46.459Z,10.57
2023-01-31T05:33:14.448Z,9.97
2023-01-31T05:35:42.701Z,10.57
2023-01-31T05:38:10.535Z,11.30
2023-01-31T05:40:37.827Z,8.80
2023-01-31T05:43:05.513Z,14.00
2023-01-31T05:45:33.207Z,10.67
2023-01-31T05:48:01.157Z,10.23
2023-01-31T05:50:28.541Z,10.77
2023-01-31T05:52:59.963Z,10.50
2023-01-31T05:55:28.126Z,11.60
2023-01-31T05:57:55.894Z,10.97
2023-01-31T06:00:24.200Z,6.70
2023-01-31T06:02:51.348Z,9.70
2023-01-31T06:05:19.057Z,9.87
2023-01-31T06:07:46.455Z,11.20
2023-01-31T06:10:13.956Z,7.70
2023-01-31T06:12:41.915Z,9.23
2023-01-31T06:15:09.371Z,14.07
2023-01-31T06:17:36.561Z,9.73
2023-01-31T06:20:05.258Z,14.30
2023-01-31T06:22:32.933Z,12.30
2023-01-31T06:25:00.333Z,9.37
2023-01-31T06:27:27.498Z,10.93
2023-01-31T06:29:54.599Z,7.27
2023-01-31T06:32:21.843Z,9.03
2023-01-31T06:34:49.001Z,11.73
2023-01-31T06:37:16.365Z,13.90
2023-01-31T06:39:43.708Z,10.57
2023-01-31T06:42:10.868Z,40.57
2023-01-31T06:44:38.329Z,25.33
2023-01-31T06:47:05.531Z,10.90
2023-01-31T06:49:32.714Z,14.37
2023-01-31T06:52:00.111Z,28.27
2023-01-31T06:54:27.267Z,7.37
2023-01-31T06:56:55.134Z,5.40
2023-01-31T06:59:22.335Z,12.83
2023-01-31T07:01:49.566Z,7.60
2023-01-31T07:04:17.176Z,10.27
2023-01-31T07:06:44.416Z,12.27
2023-01-31T07:09:12.365Z,20.97
2023-01-31T07:11:39.602Z,13.83
2023-01-31T07:14:07.015Z,7.23
2023-01-31T07:16:34.470Z,12.23
2023-01-31T07:19:01.595Z,17.17
2023-01-31T07:21:30.201Z,8.03
2023-01-31T07:23:57.447Z,9.17
2023-01-31T07:26:24.775Z,13.10
2023-01-31T07:28:53.856Z,8.80
2023-01-31T07:31:21.678Z,9.87
2023-01-31T07:33:48.850Z,12.80
2023-01-31T07:36:20.069Z,17.60
2023-01-31T07:38:47.206Z,11.60
2023-01-31T07:41:14.328Z,8.27
2023-01-31T07:43:41.653Z,9.30
2023-01-31T07:46:10.729Z,9.63
2023-01-31T07:48:38.627Z,9.00
2023-01-31T07:51:05.947Z,10.87
2023-01-31T07:53:35.588Z,13.90
2023-01-31T07:56:11.127Z,13.87
2023-01-31T07:58:39.727Z,8.27
2023-01-31T08:01:25.307Z,7.53
2023-01-31T08:03:52.963Z,12.77
2023-01-31T08:06:20.879Z,11.87
2023-01-31T08:08:48.016Z,7.60
2023-01-31T08:11:15.423Z,11.30
2023-01-31T08:13:42.788Z,8.73
2023-01-31T08:16:10.577Z,10.37
2023-01-31T08:18:38.568Z,10.67
2023-01-31T08:21:08.484Z,15.40
2023-01-31T08:23:36.268Z,12.03
2023-01-31T08:26:07.057Z,8.63
2023-01-31T08:28:34.586Z,11.13
2023-01-31T08:31:08.934Z,11.17
2023-01-31T08:33:37.793Z,7.47
2023-01-31T08:36:17.137Z,10.67
2023-01-31T08:38:45.035Z,5.10
2023-01-31T08:41:13.898Z,11.57
2023-01-31T08:43:55.947Z,11.80
2023-01-31T08:46:45.930Z,12.93
2023-01-31T08:49:13.157Z,14.07
2023-01-31T08:51:40.469Z,8.33
2023-01-31T08:54:10.059Z,10.80
2023-01-31T08:56:37.400Z,12.83
2023-01-31T08:59:04.547Z,12.20
2023-01-31T09:01:33.229Z,10.47
2023-01-31T09:04:00.814Z,9.37
2023-01-31T09:06:29.012Z,8.90
2023-01-31T09:08:57.846Z,14.30
2023-01-31T09:11:29.059Z,13.00
2023-01-31T09:13:56.809Z,12.93
2023-01-31T09:16:24.455Z,15.37
2023-01-31T09:18:51.865Z,12.63
2023-01-31T09:21:21.574Z,10.07
2023-01-31T09:23:49.716Z,8.43
2023-01-31T09:26:17.382Z,8.17
2023-01-31T09:28:45.645Z,7.03
2023-01-31T09:31:15.887Z,9.97
2023-01-31T09:33:43.421Z,8.63
2023-01-31T09:36:19.969Z,13.90
2023-01-31T09:38:48.009Z,9.73
2023-01-31T09:41:27.403Z,9.30
2023-01-31T09:44:01.895Z,10.80
2023-01-31T09:46:34.276Z,15.63
2023-01-31T09:49:06.267Z,10.63
2023-01-31T09:51:35.496Z,7.67
2023-01-31T09:54:05.066Z,10.50
2023-01-31T09:56:43.244Z,16.23
2023-01-31T09:59:16.256Z,9.63
2023-01-31T10:01:58.832Z,12.83
2023-01-31T10:04:38.141Z,13.93
2023-01-31T10:07:36.856Z,15.67
2023-01-31T10:10:18.746Z,12.27
2023-01-31T10:12:58.106Z,9.13
2023-01-31T10:15:46.664Z,12.03
2023-01-31T10:18:27.984Z,10.27
2023-01-31T10:21:05.324Z,8.53
2023-01-31T10:23:44.545Z,14.27
2023-01-31T10:26:20.671Z,6.80
2023-01-31T10:28:55.247Z,7.63
2023-01-31T10:31:44.255Z,12.50
2023-01-31T10:34:24.207Z,11.93
2023-01-31T10:37:12.452Z,9.30
2023-01-31T10:40:02.709Z,5.97
2023-01-31T10:42:42.235Z,7.63
2023-01-31T10:45:09.317Z,7.27
2023-01-31T10:48:16.595Z,7.73
2023-01-31T10:50:53.703Z,6.57
2023-01-31T10:53:38.256Z,6.57
2023-01-31T10:56:32.553Z,5.70
2023-01-31T10:59:02.866Z,8.10
2023-01-31T11:01:30.066Z,6.57
2023-01-31T11:03:57.980Z,8.43
2023-01-31T11:06:25.614Z,11.50
2023-01-31T11:08:59.383Z,12.10
2023-01-31T11:11:28.854Z,10.87
2023-01-31T11:14:01.859Z,7.13
2023-01-31T11:16:36.130Z,14.73
2023-01-31T11:19:16.557Z,8.97
2023-01-31T11:21:52.670Z,6.33
2023-01-31T11:24:26.070Z,6.03
2023-01-31T11:27:22.800Z,7.23
2023-01-31T11:29:51.901Z,14.47
2023-01-31T11:32:22.762Z,7.03
2023-01-31T11:34:57.822Z,9.37
2023-01-31T11:37:25.076Z,4.73
2023-01-31T11:39:59.601Z,7.60
2023-01-31T11:42:27.463Z,11.00
2023-01-31T11:44:56.176Z,17.07
2023-01-31T11:47:54.819Z,7.20
2023-01-31T11:50:38.954Z,11.53
2023-01-31T11:53:25.514Z,13.03
2023-01-31T11:55:57.604Z,7.47
2023-01-31T11:58:35.338Z,6.43
2023-01-31T12:01:14.693Z,31.10
2023-01-31T12:04:03.984Z,6.27
2023-01-31T12:06:42.206Z,9.73
2023-01-31T12:09:24.473Z,12.63
2023-01-31T12:11:56.414Z,6.87
2023-01-31T12:14:27.947Z,9.90
2023-01-31T12:16:56.844Z,9.93
2023-01-31T12:19:33.367Z,8.50
2023-01-31T12:22:22.273Z,4.57
2023-01-31T12:25:12.680Z,12.73
2023-01-31T12:28:04.615Z,8.27
2023-01-31T12:30:41.067Z,6.77
2023-01-31T12:33:46.854Z,10.40
2023-01-31T12:36:23.530Z,4.13
2023-01-31T12:39:02.888Z,6.90
2023-01-31T12:41:34.132Z,8.90
2023-01-31T12:44:20.264Z,5.00
2023-01-31T12:46:50.649Z,7.00
2023-01-31T12:49:53.520Z,8.07
2023-01-31T12:52:39.472Z,8.57
2023-01-31T12:55:40.440Z,5.80
2023-01-31T12:58:16.743Z,9.83
2023-01-31T13:00:56.019Z,4.07
2023-01-31T13:03:56.256Z,6.93
2023-01-31T13:06:39.620Z,5.33
2023-01-31T13:09:32.624Z,7.53
2023-01-31T13:12:16.651Z,7.50
2023-01-31T13:14:50.802Z,4.43
2023-01-31T13:17:23.377Z,4.80
2023-01-31T13:19:58.627Z,5.07
2023-01-31T13:22:50.888Z,11.93
2023-01-31T13:25:40.774Z,10.07
2023-01-31T13:28:25.496Z,11.23
2023-01-31T13:30:58.077Z,11.27
2023-01-31T13:33:46.840Z,21.73
2023-01-31T13:36:20.332Z,8.97
2023-01-31T13:38:48.183Z,14.00
2023-01-31T13:41:31.363Z,18.73
2023-01-31T13:44:00.623Z,13.97
2023-01-31T13:46:44.455Z,6.90
2023-01-31T13:49:28.078Z,16.57
2023-01-31T13:52:00.720Z,19.40
2023-01-31T13:54:37.557Z,22.90
2023-01-31T13:57:06.433Z,10.33
2023-01-31T13:59:38.102Z,8.53
2023-01-31T14:02:17.488Z,6.63
2023-01-31T14:04:47.371Z,14.07
2023-01-31T14:07:17.800Z,7.30
2023-01-31T14:09:47.986Z,5.20
2023-01-31T14:12:17.888Z,5.17
2023-01-31T14:14:53.458Z,4.27
2023-01-31T14:17:30.054Z,4.73
2023-01-31T14:20:07.602Z,3.10
2023-01-31T14:22:37.372Z,5.93
2023-01-31T14:25:11.376Z,4.33
2023-01-31T14:27:46.718Z,7.73
2023-01-31T14:30:42.975Z,4.33
2023-01-31T14:33:17.274Z,4.57
2023-01-31T14:35:50.273Z,3.63
2023-01-31T14:38:40.883Z,4.77
2023-01-31T14:41:34.396Z,4.60
2023-01-31T14:44:40.903Z,3.93
2023-01-31T14:47:14.185Z,4.83
2023-01-31T14:50:19.373Z,6.83
2023-01-31T14:52:56.391Z,12.30
2023-01-31T14:55:32.790Z,5.30
2023-01-31T14:58:02.711Z,11.20
2023-01-31T15:00:38.965Z,6.47
2023-01-31T15:03:32.093Z,7.17
2023-01-31T15:06:44.211Z,5.13
2023-01-31T15:09:24.773Z,7.50
2023-01-31T15:11:56.993Z,11.20
2023-01-31T15:14:37.195Z,6.03
2023-01-31T15:17:40.355Z,6.53
2023-01-31T15:20:13.592Z,6.27
2023-01-31T15:22:42.880Z,10.70
2023-01-31T15:25:25.007Z,17.50
2023-01-31T15:27:55.839Z,17.27
2023-01-31T15:30:23.797Z,24.37
2023-01-31T15:33:00.859Z,23.50
2023-01-31T15:35:46.788Z,24.47
2023-01-31T15:38:41.967Z,15.57
2023-01-31T15:41:17.548Z,8.33
2023-01-31T15:43:46.007Z,6.20
2023-01-31T15:46:20.281Z,9.57
2023-01-31T15:48:47.752Z,9.67
2023-01-31T15:51:15.824Z,11.67
2023-01-31T15:53:44.373Z,13.87
2023-01-31T15:56:29.117Z,6.67
2023-01-31T15:58:58.075Z,9.93
2023-01-31T16:01:31.041Z,10.50
2023-01-31T16:03:59.801Z,5.40
2023-01-31T16:06:36.703Z,12.63
2023-01-31T16:09:06.187Z,9.23
2023-01-31T16:11:35.400Z,8.77
2023-01-31T16:14:05.746Z,6.17
2023-01-31T16:16:36.425Z,9.90
2023-01-31T16:19:04.604Z,4.83
2023-01-31T16:21:42.156Z,7.33
2023-01-31T16:24:20.573Z,9.33
2023-01-31T16:27:09.520Z,7.57
2023-01-31T16:29:43.846Z,7.90
2023-01-31T16:32:42.340Z,4.23
2023-01-31T16:35:22.703Z,7.50
2023-01-31T16:38:08.289Z,9.97
2023-01-31T16:40:45.822Z,6.83
2023-01-31T16:43:33.780Z,8.90
2023-01-31T16:46:06.858Z,10.93
2023-01-31T16:48:36.574Z,9.10
2023-01-31T16:51:42.864Z,8.73
2023-01-31T16:54:19.589Z,19.70
2023-01-31T16:57:07.447Z,10.87
2023-01-31T16:59:38.646Z,11.03
2023-01-31T17:02:14.310Z,13.57
2023-01-31T17:04:42.724Z,11.83
2023-01-31T17:07:23.743Z,11.33
2023-01-31T17:09:56.950Z,10.20
2023-01-31T17:12:29.981Z,13.53
2023-01-31T17:15:01.588Z,8.43
2023-01-31T17:17:37.738Z,4.40
2023-01-31T17:20:05.815Z,8.43
2023-01-31T17:22:33.007Z,8.50
2023-01-31T17:25:00.160Z,8.33
2023-01-31T17:27:27.585Z,11.03
2023-01-31T17:29:54.685Z,15.83
2023-01-31T17:32:22.031Z,19.67
2023-01-31T17:34:49.323Z,15.57
2023-01-31T17:37:20.787Z,18.70
2023-01-31T17:39:51.052Z,18.13
2023-01-31T17:42:20.210Z,18.60
2023-01-31T17:44:48.141Z,13.00
2023-01-31T17:47:15.515Z,14.77
2023-01-31T17:49:44.951Z,16.80
2023-01-31T17:52:12.672Z,9.33
2023-01-31T17:54:39.918Z,13.63
2023-01-31T17:57:07.071Z,14.80
2023-01-31T17:59:34.376Z,10.60
2023-01-31T18:02:02.680Z,8.97
2023-01-31T18:04:29.912Z,9.00
2023-01-31T18:06:57.144Z,7.80
2023-01-31T18:09:25.949Z,7.53
2023-01-31T18:11:53.434Z,9.90
2023-01-31T18:14:21.001Z,7.90
2023-01-31T18:16:51.642Z,9.87
2023-01-31T18:19:19.090Z,9.13
2023-01-31T18:21:54.447Z,8.47
2023-01-31T18:24:22.849Z,7.57
2023-01-31T18:26:50.073Z,8.43
2023-01-31T18:29:21.638Z,5.27
2023-01-31T18:31:50.337Z,6.93
2023-01-31T18:34:17.587Z,6.97
2023-01-31T18:36:45.523Z,7.40
2023-01-31T18:39:12.903Z,6.97
2023-01-31T18:41:40.794Z,10.83
2023-01-31T18:44:08.384Z,10.10
2023-01-31T18:46:35.841Z,6.80
2023-01-31T18:49:03.537Z,10.83
2023-01-31T18:51:31.075Z,10.00
2023-01-31T18:53:59.028Z,6.47
2023-01-31T18:56:26.654Z,6.90
2023-01-31T18:58:54.649Z,9.00
2023-01-31T19:01:28.990Z,4.90
2023-01-31T19:03:58.591Z,3.70
2023-01-31T19:06:35.476Z,4.57
2023-01-31T19:09:04.005Z,2.57
2023-01-31T19:11:31.583Z,3.67
2023-01-31T19:13:59.465Z,5.00
2023-01-31T19:16:29.427Z,5.37
2023-01-31T19:18:57.473Z,3.50
2023-01-31T19:21:27.057Z,3.17
2023-01-31T19:23:56.426Z,3.50
2023-01-31T19:26:24.117Z,2.70
2023-01-31T19:28:51.593Z,6.53
2023-01-31T19:31:22.345Z,3.23
2023-01-31T19:33:51.840Z,4.10
2023-01-31T19:36:21.486Z,3.20
2023-01-31T19:38:48.798Z,9.70
2023-01-31T19:41:19.435Z,4.00
2023-01-31T19:43:50.696Z,5.37
2023-01-31T19:46:18.957Z,7.93
2023-01-31T19:48:46.254Z,12.33
2023-01-31T19:51:15.768Z,5.30
2023-01-31T19:53:43.911Z,2.87
2023-01-31T19:56:11.498Z,2.07
2023-01-31T19:58:38.745Z,2.67
2023-01-31T20:01:08.829Z,2.53
2023-01-31T20:03:37.777Z,3.90
2023-01-31T20:06:10.661Z,3.13
2023-01-31T20:08:38.434Z,1.43
2023-01-31T20:11:08.175Z,4.10
2023-01-31T20:13:35.781Z,3.83
2023-01-31T20:16:09.118Z,3.43
2023-01-31T20:18:37.573Z,2.53
2023-01-31T20:21:05.984Z,2.13
2023-01-31T20:23:33.895Z,1.77
2023-01-31T20:26:01.252Z,1.80
2023-01-31T20:28:31.301Z,1.97
2023-01-31T20:31:07.240Z,1.63
2023-01-31T20:33:34.852Z,2.60
2023-01-31T20:36:02.078Z,3.90
2023-01-31T20:38:29.700Z,1.67
2023-01-31T20:40:57.201Z,5.07
2023-01-31T20:43:26.665Z,7.93
2023-01-31T20:45:53.985Z,3.63
2023-01-31T20:48:22.678Z,3.70
2023-01-31T20:50:57.291Z,1.67
2023-01-31T20:53:25.303Z,2.47
2023-01-31T20:56:07.622Z,3.07
2023-01-31T20:58:37.602Z,1.93
2023-01-31T21:01:06.694Z,1.77
2023-01-31T21:03:35.082Z,2.73
2023-01-31T21:06:03.833Z,7.03
2023-01-31T21:08:35.988Z,4.83
2023-01-31T21:11:07.483Z,3.10
2023-01-31T21:13:36.936Z,2.93
2023-01-31T21:16:07.050Z,2.60
2023-01-31T21:18:37.036Z,3.30
2023-01-31T21:21:07.647Z,5.10
2023-01-31T21:23:36.039Z,4.17
2023-01-31T21:26:07.058Z,2.40
2023-01-31T21:28:34.807Z,2.60
2023-01-31T21:31:04.809Z,3.50
2023-01-31T21:33:32.308Z,3.00
2023-01-31T21:36:00.902Z,2.57
2023-01-31T21:38:28.162Z,2.63
2023-01-31T21:41:15.432Z,2.00
2023-01-31T21:43:42.693Z,3.60
2023-01-31T21:46:10.884Z,3.80
2023-01-31T21:48:38.477Z,2.87
2023-01-31T21:51:08.858Z,3.07
2023-01-31T21:53:36.295Z,2.20
2023-01-31T21:56:05.963Z,3.23
2023-01-31T21:58:34.310Z,4.17
2023-01-31T22:01:14.189Z,2.47
2023-01-31T22:03:45.099Z,2.10
2023-01-31T22:06:14.796Z,2.47
2023-01-31T22:08:42.840Z,2.67
2023-01-31T22:11:12.725Z,2.67
2023-01-31T22:13:43.362Z,4.60
2023-01-31T22:16:12.261Z,4.37
2023-01-31T22:18:40.782Z,2.73
2023-01-31T22:21:16.536Z,3.97
2023-01-31T22:23:49.551Z,2.07
2023-01-31T22:26:22.699Z,2.83
2023-01-31T22:28:50.058Z,2.70
2023-01-31T22:31:18.708Z,2.73
2023-01-31T22:33:46.251Z,3.43
2023-01-31T22:36:15.186Z,2.03
2023-01-31T22:38:43.025Z,2.23
2023-01-31T22:41:13.220Z,3.90
2023-01-31T22:43:42.776Z,1.93
2023-01-31T22:46:17.255Z,1.90
2023-01-31T22:48:44.983Z,2.40
2023-01-31T22:51:15.084Z,2.37
2023-01-31T22:53:42.963Z,2.20
2023-01-31T22:56:28.148Z,1.70
2023-01-31T22:59:00.002Z,2.63
2023-01-31T23:01:30.030Z,1.67
2023-01-31T23:03:58.907Z,2.27
2023-01-31T23:06:26.931Z,1.70
2023-01-31T23:08:54.534Z,2.43
2023-01-31T23:11:22.213Z,2.17
2023-01-31T23:13:49.655Z,2.70
2023-01-31T23:16:43.106Z,2.00
2023-01-31T23:19:11.233Z,3.13
2023-01-31T23:21:42.945Z,2.57
2023-01-31T23:24:10.784Z,4.80
2023-01-31T23:26:38.171Z,2.90
2023-01-31T23:29:05.745Z,1.60
2023-01-31T23:31:33.019Z,1.60
2023-01-31T23:34:00.967Z,1.97
2023-01-31T23:36:28.545Z,3.20
2023-01-31T23:38:56.383Z,3.33
2023-01-31T23:41:23.501Z,1.90
2023-01-31T23:43:50.662Z,1.40
2023-01-31T23:46:18.011Z,1.70
2023-01-31T23:48:45.172Z,3.20
2023-01-31T23:51:12.450Z,1.93
2023-01-31T23:53:39.744Z,2.03
2023-01-31T23:56:07.261Z,3.23
2023-01-31T23:58:34.577Z,2.50
